sensor_id;sensor_type;location;lat;lon;timestamp;pressure;altitude;pressure_sealevel;temperature;humidity
6565;BME280;3316;44.118;27.258;2023-02-22T00:01:23;100823.56;;;10.85;87.95
6565;BME280;3316;44.118;27.258;2023-02-22T00:04:15;100827.94;;;10.88;88.67
6565;BME280;3316;44.118;27.258;2023-02-22T00:06:44;100825.31;;;10.86;88.53
6565;BME280;3316;44.118;27.258;2023-02-22T00:09:10;100800.88;;;10.70;88.87
6565;BME280;3316;44.118;27.258;2023-02-22T00:11:35;100814.00;;;10.77;89.33
6565;BME280;3316;44.118;27.258;2023-02-22T00:14:02;100820.94;;;10.85;89.72
6565;BME280;3316;44.118;27.258;2023-02-22T00:16:28;100829.69;;;10.87;89.71
6565;BME280;3316;44.118;27.258;2023-02-22T00:18:55;100832.28;;;10.92;89.43
6565;BME280;3316;44.118;27.258;2023-02-22T00:21:20;100822.66;;;10.89;89.65
6565;BME280;3316;44.118;27.258;2023-02-22T00:23:47;100816.56;;;10.84;89.40
6565;BME280;3316;44.118;27.258;2023-02-22T00:26:14;100824.34;;;10.98;89.61
6565;BME280;3316;44.118;27.258;2023-02-22T00:28:43;100797.25;;;10.85;89.71
6565;BME280;3316;44.118;27.258;2023-02-22T00:31:09;100823.34;;;11.09;88.41
6565;BME280;3316;44.118;27.258;2023-02-22T00:33:37;100835.66;;;11.07;88.87
6565;BME280;3316;44.118;27.258;2023-02-22T00:36:03;100817.28;;;11.01;89.16
6565;BME280;3316;44.118;27.258;2023-02-22T00:38:29;100826.91;;;11.05;88.94
6565;BME280;3316;44.118;27.258;2023-02-22T00:40:54;100826.94;;;10.99;89.50
6565;BME280;3316;44.118;27.258;2023-02-22T00:43:20;100807.72;;;10.94;90.58
6565;BME280;3316;44.118;27.258;2023-02-22T00:45:45;100817.28;;;11.01;90.66
6565;BME280;3316;44.118;27.258;2023-02-22T00:48:11;100825.13;;;11.04;90.92
6565;BME280;3316;44.118;27.258;2023-02-22T00:50:36;100805.03;;;10.97;91.27
6565;BME280;3316;44.118;27.258;2023-02-22T00:53:03;100815.53;;;10.99;91.28
6565;BME280;3316;44.118;27.258;2023-02-22T00:55:31;100771.09;;;10.68;91.64
6565;BME280;3316;44.118;27.258;2023-02-22T00:57:57;100825.28;;;10.92;92.36
6565;BME280;3316;44.118;27.258;2023-02-22T01:00:29;100833.16;;;10.91;93.20
6565;BME280;3316;44.118;27.258;2023-02-22T01:02:55;100825.25;;;10.94;93.21
6565;BME280;3316;44.118;27.258;2023-02-22T01:05:24;100793.84;;;10.71;93.14
6565;BME280;3316;44.118;27.258;2023-02-22T01:07:50;100816.56;;;10.81;93.79
6565;BME280;3316;44.118;27.258;2023-02-22T01:10:19;100823.56;;;10.88;94.70
6565;BME280;3316;44.118;27.258;2023-02-22T01:12:46;100825.28;;;10.89;94.62
6565;BME280;3316;44.118;27.258;2023-02-22T01:15:14;100818.34;;;10.79;95.47
6565;BME280;3316;44.118;27.258;2023-02-22T01:17:40;100827.97;;;10.83;95.81
6565;BME280;3316;44.118;27.258;2023-02-22T01:20:09;100828.84;;;10.81;95.79
6565;BME280;3316;44.118;27.258;2023-02-22T01:22:44;100819.25;;;10.75;97.26
6565;BME280;3316;44.118;27.258;2023-02-22T01:25:14;100816.63;;;10.77;96.75
6565;BME280;3316;44.118;27.258;2023-02-22T01:27:40;100805.28;;;10.67;97.33
6565;BME280;3316;44.118;27.258;2023-02-22T01:30:06;100805.19;;;10.77;97.90
6565;BME280;3316;44.118;27.258;2023-02-22T01:32:36;100810.47;;;10.77;97.64
6565;BME280;3316;44.118;27.258;2023-02-22T01:35:05;100802.59;;;10.73;98.42
6565;BME280;3316;44.118;27.258;2023-02-22T01:37:35;100804.38;;;10.71;98.66
6565;BME280;3316;44.118;27.258;2023-02-22T01:40:02;100810.53;;;10.71;98.98
6565;BME280;3316;44.118;27.258;2023-02-22T01:42:28;100790.28;;;10.80;97.90
6565;BME280;3316;44.118;27.258;2023-02-22T01:50:46;100813.06;;;10.82;98.09
6565;BME280;3316;44.118;27.258;2023-02-22T01:53:15;100805.34;;;10.59;98.90
6565;BME280;3316;44.118;27.258;2023-02-22T01:55:42;100823.78;;;10.61;99.79
6565;BME280;3316;44.118;27.258;2023-02-22T01:58:09;100824.81;;;10.39;100.00
6565;BME280;3316;44.118;27.258;2023-02-22T02:00:34;100782.72;;;10.39;100.00
6565;BME280;3316;44.118;27.258;2023-02-22T02:03:10;100806.34;;;10.42;100.00
6565;BME280;3316;44.118;27.258;2023-02-22T02:05:36;100833.56;;;10.38;100.00
6565;BME280;3316;44.118;27.258;2023-02-22T02:08:28;100797.78;;;10.08;100.00
6565;BME280;3316;44.118;27.258;2023-02-22T02:10:55;100828.38;;;10.27;100.00
6565;BME280;3316;44.118;27.258;2023-02-22T02:13:23;100829.19;;;10.38;100.00
6565;BME280;3316;44.118;27.258;2023-02-22T02:15:53;100831.81;;;10.37;100.00
6565;BME280;3316;44.118;27.258;2023-02-22T02:18:19;100818.78;;;10.14;100.00
6565;BME280;3316;44.118;27.258;2023-02-22T02:28:36;100836.34;;;10.15;100.00
6565;BME280;3316;44.118;27.258;2023-02-22T02:36:55;100842.47;;;10.05;100.00
6565;BME280;3316;44.118;27.258;2023-02-22T02:39:51;100831.94;;;10.14;100.00
6565;BME280;3316;44.118;27.258;2023-02-22T02:42:20;100837.19;;;10.17;100.00
6565;BME280;3316;44.118;27.258;2023-02-22T02:44:54;100839.84;;;10.13;100.00
6565;BME280;3316;44.118;27.258;2023-02-22T02:47:26;100847.75;;;10.01;100.00
6565;BME280;3316;44.118;27.258;2023-02-22T02:50:12;100848.66;;;9.98;100.00
6565;BME280;3316;44.118;27.258;2023-02-22T02:52:40;100857.44;;;9.89;100.00
6565;BME280;3316;44.118;27.258;2023-02-22T02:55:07;100864.50;;;9.78;100.00
6565;BME280;3316;44.118;27.258;2023-02-22T02:57:35;100862.84;;;9.53;100.00
6565;BME280;3316;44.118;27.258;2023-02-22T03:00:04;100827.00;;;9.25;100.00
6565;BME280;3316;44.118;27.258;2023-02-22T03:08:28;100873.31;;;9.62;100.00
6565;BME280;3316;44.118;27.258;2023-02-22T03:11:09;100872.44;;;9.56;100.00
6565;BME280;3316;44.118;27.258;2023-02-22T03:13:59;100875.97;;;9.55;100.00
6565;BME280;3316;44.118;27.258;2023-02-22T03:16:45;100878.63;;;9.46;100.00
6565;BME280;3316;44.118;27.258;2023-02-22T03:19:37;100876.88;;;9.43;100.00
6565;BME280;3316;44.118;27.258;2023-02-22T03:22:14;100880.38;;;9.39;100.00
6565;BME280;3316;44.118;27.258;2023-02-22T03:27:37;100879.44;;;9.54;100.00
6565;BME280;3316;44.118;27.258;2023-02-22T03:30:11;100869.81;;;9.56;100.00
6565;BME280;3316;44.118;27.258;2023-02-22T03:32:43;100878.56;;;9.62;100.00
6565;BME280;3316;44.118;27.258;2023-02-22T03:35:15;100869.81;;;9.60;100.00
6565;BME280;3316;44.118;27.258;2023-02-22T03:37:45;100867.19;;;9.54;100.00
6565;BME280;3316;44.118;27.258;2023-02-22T03:40:22;100883.81;;;9.56;100.00
6565;BME280;3316;44.118;27.258;2023-02-22T03:42:59;100871.59;;;9.49;100.00
6565;BME280;3316;44.118;27.258;2023-02-22T03:45:28;100876.00;;;9.46;100.00
6565;BME280;3316;44.118;27.258;2023-02-22T03:48:15;100893.50;;;9.41;100.00
6565;BME280;3316;44.118;27.258;2023-02-22T03:50:42;100887.41;;;9.28;100.00
6565;BME280;3316;44.118;27.258;2023-02-22T03:53:08;100881.25;;;9.28;100.00
6565;BME280;3316;44.118;27.258;2023-02-22T03:55:34;100881.22;;;9.44;100.00
6565;BME280;3316;44.118;27.258;2023-02-22T03:58:04;100897.88;;;9.49;100.00
6565;BME280;3316;44.118;27.258;2023-02-22T04:00:32;100882.97;;;9.48;100.00
6565;BME280;3316;44.118;27.258;2023-02-22T04:02:59;100896.09;;;9.54;100.00
6565;BME280;3316;44.118;27.258;2023-02-22T04:05:24;100900.47;;;9.57;100.00
6565;BME280;3316;44.118;27.258;2023-02-22T04:07:55;100893.47;;;9.53;100.00
6565;BME280;3316;44.118;27.258;2023-02-22T04:10:22;100874.22;;;9.39;100.00
6565;BME280;3316;44.118;27.258;2023-02-22T04:12:48;100892.63;;;9.48;100.00
6565;BME280;3316;44.118;27.258;2023-02-22T04:15:18;100880.38;;;9.44;100.00
6565;BME280;3316;44.118;27.258;2023-02-22T04:17:44;100872.47;;;9.41;100.00
6565;BME280;3316;44.118;27.258;2023-02-22T04:20:10;100886.47;;;9.59;100.00
6565;BME280;3316;44.118;27.258;2023-02-22T04:22:38;100888.22;;;9.59;100.00
6565;BME280;3316;44.118;27.258;2023-02-22T04:25:04;100875.06;;;9.54;100.00
6565;BME280;3316;44.118;27.258;2023-02-22T04:27:29;100881.19;;;9.61;100.00
6565;BME280;3316;44.118;27.258;2023-02-22T04:29:55;100882.09;;;9.55;100.00
6565;BME280;3316;44.118;27.258;2023-02-22T04:32:20;100888.22;;;9.54;100.00
6565;BME280;3316;44.118;27.258;2023-02-22T04:34:45;100873.34;;;9.55;100.00
6565;BME280;3316;44.118;27.258;2023-02-22T04:37:11;100884.72;;;9.55;100.00
6565;BME280;3316;44.118;27.258;2023-02-22T04:39:37;100883.81;;;9.56;100.00
6565;BME280;3316;44.118;27.258;2023-02-22T04:42:02;100880.34;;;9.36;100.00
6565;BME280;3316;44.118;27.258;2023-02-22T04:44:28;100876.00;;;9.34;100.00
6565;BME280;3316;44.118;27.258;2023-02-22T04:46:53;100898.78;;;9.30;100.00
6565;BME280;3316;44.118;27.258;2023-02-22T04:49:20;100893.53;;;9.24;100.00
6565;BME280;3316;44.118;27.258;2023-02-22T04:51:46;100893.50;;;9.21;100.00
6565;BME280;3316;44.118;27.258;2023-02-22T04:54:11;100901.41;;;9.20;100.00
6565;BME280;3316;44.118;27.258;2023-02-22T04:56:38;100903.16;;;9.24;100.00
6565;BME280;3316;44.118;27.258;2023-02-22T04:59:03;100903.13;;;9.31;100.00
6565;BME280;3316;44.118;27.258;2023-02-22T05:01:33;100866.41;;;9.10;100.00
6565;BME280;3316;44.118;27.258;2023-02-22T05:04:04;100905.75;;;9.25;100.00
6565;BME280;3316;44.118;27.258;2023-02-22T05:06:30;100891.75;;;9.11;100.00
6565;BME280;3316;44.118;27.258;2023-02-22T05:08:56;100890.91;;;9.11;100.00
6565;BME280;3316;44.118;27.258;2023-02-22T05:11:21;100910.13;;;9.25;100.00
6565;BME280;3316;44.118;27.258;2023-02-22T05:13:47;100911.00;;;9.39;100.00
6565;BME280;3316;44.118;27.258;2023-02-22T05:16:12;100890.84;;;9.36;100.00
6565;BME280;3316;44.118;27.258;2023-02-22T05:18:38;100911.00;;;9.45;100.00
6565;BME280;3316;44.118;27.258;2023-02-22T05:21:03;100924.16;;;9.42;100.00
6565;BME280;3316;44.118;27.258;2023-02-22T05:23:29;100937.28;;;9.48;100.00
6565;BME280;3316;44.118;27.258;2023-02-22T05:25:54;100934.63;;;9.55;100.00
6565;BME280;3316;44.118;27.258;2023-02-22T05:28:20;100958.16;;;10.14;100.00
6565;BME280;3316;44.118;27.258;2023-02-22T05:30:45;100971.25;;;10.31;100.00
6565;BME280;3316;44.118;27.258;2023-02-22T05:33:11;100972.16;;;10.19;100.00
6565;BME280;3316;44.118;27.258;2023-02-22T05:35:37;100969.63;;;9.71;100.00
6565;BME280;3316;44.118;27.258;2023-02-22T05:38:03;100983.63;;;9.80;100.00
6565;BME280;3316;44.118;27.258;2023-02-22T05:40:30;100985.28;;;10.27;100.00
6565;BME280;3316;44.118;27.258;2023-02-22T05:42:56;100976.16;;;10.99;100.00
6565;BME280;3316;44.118;27.258;2023-02-22T05:45:24;100966.59;;;12.65;94.44
6565;BME280;3316;44.118;27.258;2023-02-22T05:47:50;100986.09;;;14.19;81.51
6565;BME280;3316;44.118;27.258;2023-02-22T05:50:17;100970.75;;;15.54;69.87
6565;BME280;3316;44.118;27.258;2023-02-22T05:52:43;100980.91;;;16.36;66.35
6565;BME280;3316;44.118;27.258;2023-02-22T05:55:11;101002.25;;;17.21;59.99
6565;BME280;3316;44.118;27.258;2023-02-22T05:57:37;100999.63;;;18.25;56.56
6565;BME280;3316;44.118;27.258;2023-02-22T06:00:05;100995.28;;;18.94;52.02
6565;BME280;3316;44.118;27.258;2023-02-22T06:02:32;101002.53;;;19.35;50.90
6565;BME280;3316;44.118;27.258;2023-02-22T06:04:58;101016.91;;;20.16;48.10
6565;BME280;3316;44.118;27.258;2023-02-22T06:07:24;101018.44;;;20.80;46.73
6565;BME280;3316;44.118;27.258;2023-02-22T06:09:49;101024.47;;;21.22;43.44
6565;BME280;3316;44.118;27.258;2023-02-22T06:12:15;101021.94;;;20.23;45.64
6565;BME280;3316;44.118;27.258;2023-02-22T06:14:41;101038.88;;;20.42;44.79
6565;BME280;3316;44.118;27.258;2023-02-22T06:17:12;101039.78;;;19.38;46.64
6565;BME280;3316;44.118;27.258;2023-02-22T06:19:38;101040.72;;;17.66;49.72
6565;BME280;3316;44.118;27.258;2023-02-22T06:22:05;101037.25;;;15.80;54.72
6565;BME280;3316;44.118;27.258;2023-02-22T06:24:31;101042.63;;;15.03;58.45
6565;BME280;3316;44.118;27.258;2023-02-22T06:27:00;101043.09;;;14.81;60.26
6565;BME280;3316;44.118;27.258;2023-02-22T06:29:27;101062.19;;;14.05;63.73
6565;BME280;3316;44.118;27.258;2023-02-22T06:31:53;101046.09;;;13.68;67.58
6565;BME280;3316;44.118;27.258;2023-02-22T06:34:19;101059.69;;;13.46;69.81
6565;BME280;3316;44.118;27.258;2023-02-22T06:36:46;101050.97;;;12.72;74.02
6565;BME280;3316;44.118;27.258;2023-02-22T06:39:13;101062.84;;;12.38;80.39
6565;BME280;3316;44.118;27.258;2023-02-22T06:41:41;101063.00;;;12.20;83.90
6565;BME280;3316;44.118;27.258;2023-02-22T06:44:07;101042.88;;;12.11;85.71
6565;BME280;3316;44.118;27.258;2023-02-22T06:46:33;101062.09;;;12.24;87.04
6565;BME280;3316;44.118;27.258;2023-02-22T06:48:59;101053.03;;;12.49;86.95
6565;BME280;3316;44.118;27.258;2023-02-22T06:51:26;101038.03;;;12.54;85.81
6565;BME280;3316;44.118;27.258;2023-02-22T06:53:51;101008.06;;;12.57;87.13
6565;BME280;3316;44.118;27.258;2023-02-22T06:56:17;101053.09;;;13.14;82.40
6565;BME280;3316;44.118;27.258;2023-02-22T06:58:43;101063.81;;;13.01;82.77
6565;BME280;3316;44.118;27.258;2023-02-22T07:01:08;101062.19;;;12.89;81.88
6565;BME280;3316;44.118;27.258;2023-02-22T07:03:34;101053.59;;;12.75;82.62
6565;BME280;3316;44.118;27.258;2023-02-22T07:06:00;101060.25;;;13.06;80.30
6565;BME280;3316;44.118;27.258;2023-02-22T07:08:27;101069.44;;;12.75;81.22
6565;BME280;3316;44.118;27.258;2023-02-22T07:10:52;101073.41;;;12.35;85.35
6565;BME280;3316;44.118;27.258;2023-02-22T07:13:18;101068.22;;;12.27;86.27
6565;BME280;3316;44.118;27.258;2023-02-22T07:15:43;101066.47;;;12.26;87.41
6565;BME280;3316;44.118;27.258;2023-02-22T07:18:09;101050.78;;;12.13;88.29
6565;BME280;3316;44.118;27.258;2023-02-22T07:20:34;101063.13;;;12.11;87.77
6565;BME280;3316;44.118;27.258;2023-02-22T07:23:00;101038.94;;;11.57;90.54
6565;BME280;3316;44.118;27.258;2023-02-22T07:25:26;101071.50;;;11.47;94.59
6565;BME280;3316;44.118;27.258;2023-02-22T07:27:51;101082.06;;;11.47;96.32
6565;BME280;3316;44.118;27.258;2023-02-22T07:32:45;101077.69;;;11.43;98.47
6565;BME280;3316;44.118;27.258;2023-02-22T07:35:31;101078.50;;;11.56;97.07
6565;BME280;3316;44.118;27.258;2023-02-22T07:37:57;101064.59;;;11.34;98.14
6565;BME280;3316;44.118;27.258;2023-02-22T07:40:24;101059.47;;;11.09;100.00
6565;BME280;3316;44.118;27.258;2023-02-22T07:42:51;101054.13;;;11.18;100.00
6565;BME280;3316;44.118;27.258;2023-02-22T07:45:16;101076.03;;;11.27;100.00
6565;BME280;3316;44.118;27.258;2023-02-22T07:47:42;101077.06;;;11.04;100.00
6565;BME280;3316;44.118;27.258;2023-02-22T07:50:08;101081.47;;;11.02;100.00
6565;BME280;3316;44.118;27.258;2023-02-22T07:52:33;101087.63;;;10.99;100.00
6565;BME280;3316;44.118;27.258;2023-02-22T07:54:59;101077.03;;;11.08;100.00
6565;BME280;3316;44.118;27.258;2023-02-22T07:57:24;101079.78;;;10.81;100.00
6565;BME280;3316;44.118;27.258;2023-02-22T07:59:50;101092.09;;;10.79;100.00
6565;BME280;3316;44.118;27.258;2023-02-22T08:02:16;101078.09;;;10.68;100.00
6565;BME280;3316;44.118;27.258;2023-02-22T08:04:41;101084.09;;;11.02;100.00
6565;BME280;3316;44.118;27.258;2023-02-22T08:07:07;101092.78;;;11.14;100.00
6565;BME280;3316;44.118;27.258;2023-02-22T08:09:32;101048.06;;;11.08;100.00
6565;BME280;3316;44.118;27.258;2023-02-22T08:11:57;101087.53;;;11.13;100.00
6565;BME280;3316;44.118;27.258;2023-02-22T08:14:23;101065.59;;;11.12;100.00
6565;BME280;3316;44.118;27.258;2023-02-22T08:16:48;101086.22;;;11.80;100.00
6565;BME280;3316;44.118;27.258;2023-02-22T08:19:14;101079.31;;;13.26;89.79
6565;BME280;3316;44.118;27.258;2023-02-22T08:21:39;101087.47;;;14.22;81.23
6565;BME280;3316;44.118;27.258;2023-02-22T08:24:04;101080.03;;;14.44;76.02
6565;BME280;3316;44.118;27.258;2023-02-22T08:26:30;101081.03;;;13.88;77.71
6565;BME280;3316;44.118;27.258;2023-02-22T08:28:55;101082.22;;;13.68;79.90
6565;BME280;3316;44.118;27.258;2023-02-22T08:31:21;101080.69;;;13.55;80.96
6565;BME280;3316;44.118;27.258;2023-02-22T08:33:47;101083.47;;;13.46;81.38
6565;BME280;3316;44.118;27.258;2023-02-22T08:36:14;101074.75;;;13.39;81.03
6565;BME280;3316;44.118;27.258;2023-02-22T08:38:40;101081.78;;;13.42;80.64
6565;BME280;3316;44.118;27.258;2023-02-22T08:41:05;101083.38;;;12.86;85.55
6565;BME280;3316;44.118;27.258;2023-02-22T08:43:31;101053.28;;;12.98;83.94
6565;BME280;3316;44.118;27.258;2023-02-22T08:45:56;101062.53;;;13.30;82.03
6565;BME280;3316;44.118;27.258;2023-02-22T08:48:22;101093.09;;;13.48;81.83
6565;BME280;3316;44.118;27.258;2023-02-22T08:50:48;101091.09;;;13.64;80.03
6565;BME280;3316;44.118;27.258;2023-02-22T08:53:14;101074.06;;;13.83;79.48
6565;BME280;3316;44.118;27.258;2023-02-22T08:55:41;101073.34;;;13.72;78.32
6565;BME280;3316;44.118;27.258;2023-02-22T08:58:08;101081.56;;;14.07;78.16
6565;BME280;3316;44.118;27.258;2023-02-22T09:00:34;101086.94;;;14.51;74.51
6565;BME280;3316;44.118;27.258;2023-02-22T09:03:01;101079.72;;;14.61;72.86
6565;BME280;3316;44.118;27.258;2023-02-22T09:05:27;101088.50;;;15.05;71.22
6565;BME280;3316;44.118;27.258;2023-02-22T09:07:53;101100.53;;;15.20;70.01
6565;BME280;3316;44.118;27.258;2023-02-22T09:10:22;101089.84;;;15.25;68.96
6565;BME280;3316;44.118;27.258;2023-02-22T09:12:52;101096.44;;;14.64;71.57
6565;BME280;3316;44.118;27.258;2023-02-22T09:15:20;101096.41;;;13.65;76.72
6565;BME280;3316;44.118;27.258;2023-02-22T09:17:45;101062.66;;;13.23;80.34
6565;BME280;3316;44.118;27.258;2023-02-22T09:20:11;101094.06;;;13.46;80.75
6565;BME280;3316;44.118;27.258;2023-02-22T09:22:37;101098.03;;;13.72;79.33
6565;BME280;3316;44.118;27.258;2023-02-22T09:25:03;101080.00;;;13.40;80.59
6565;BME280;3316;44.118;27.258;2023-02-22T09:27:29;101090.94;;;13.15;83.22
6565;BME280;3316;44.118;27.258;2023-02-22T09:29:54;101098.22;;;12.96;84.58
6565;BME280;3316;44.118;27.258;2023-02-22T09:32:23;101091.75;;;13.21;85.64
6565;BME280;3316;44.118;27.258;2023-02-22T09:34:52;101098.75;;;13.82;79.80
6565;BME280;3316;44.118;27.258;2023-02-22T09:37:18;101093.44;;;16.32;69.87
6565;BME280;3316;44.118;27.258;2023-02-22T09:39:44;101093.06;;;17.65;60.25
6565;BME280;3316;44.118;27.258;2023-02-22T09:44:55;101104.56;;;18.20;55.16
6565;BME280;3316;44.118;27.258;2023-02-22T09:47:35;101091.88;;;18.02;55.78
6565;BME280;3316;44.118;27.258;2023-02-22T09:50:05;101093.94;;;17.66;55.06
6565;BME280;3316;44.118;27.258;2023-02-22T09:52:48;101097.75;;;17.30;56.31
6565;BME280;3316;44.118;27.258;2023-02-22T09:55:36;101098.97;;;16.87;57.87
6565;BME280;3316;44.118;27.258;2023-02-22T10:03:46;101084.06;;;15.06;64.62
6565;BME280;3316;44.118;27.258;2023-02-22T10:06:16;101087.69;;;15.03;65.45
6565;BME280;3316;44.118;27.258;2023-02-22T10:08:43;101080.13;;;15.24;65.22
6565;BME280;3316;44.118;27.258;2023-02-22T10:11:20;101095.19;;;14.82;66.27
6565;BME280;3316;44.118;27.258;2023-02-22T10:14:56;101086.78;;;14.11;70.88
6565;BME280;3316;44.118;27.258;2023-02-22T10:17:04;101084.53;;;14.41;71.38
6565;BME280;3316;44.118;27.258;2023-02-22T10:19:35;101079.06;;;14.92;68.85
6565;BME280;3316;44.118;27.258;2023-02-22T10:22:31;101083.56;;;15.29;67.74
6565;BME280;3316;44.118;27.258;2023-02-22T10:25:07;101042.47;;;14.70;68.81
6565;BME280;3316;44.118;27.258;2023-02-22T10:27:40;101076.34;;;15.35;66.31
6565;BME280;3316;44.118;27.258;2023-02-22T10:30:15;101079.28;;;15.23;67.07
6565;BME280;3316;44.118;27.258;2023-02-22T10:32:44;101070.88;;;15.44;66.34
6565;BME280;3316;44.118;27.258;2023-02-22T10:35:29;101069.09;;;15.80;64.33
6565;BME280;3316;44.118;27.258;2023-02-22T10:38:10;101075.72;;;15.64;65.17
6565;BME280;3316;44.118;27.258;2023-02-22T10:40:39;101079.50;;;15.89;64.46
6565;BME280;3316;44.118;27.258;2023-02-22T10:43:05;101070.41;;;15.24;66.24
6565;BME280;3316;44.118;27.258;2023-02-22T10:45:33;101072.69;;;15.41;66.61
6565;BME280;3316;44.118;27.258;2023-02-22T10:48:05;101059.72;;;14.89;68.37
6565;BME280;3316;44.118;27.258;2023-02-22T10:50:38;101068.91;;;14.71;69.59
6565;BME280;3316;44.118;27.258;2023-02-22T10:53:06;101065.25;;;14.33;72.73
6565;BME280;3316;44.118;27.258;2023-02-22T10:55:31;101049.06;;;14.48;73.20
6565;BME280;3316;44.118;27.258;2023-02-22T10:58:05;101067.56;;;14.49;74.46
6565;BME280;3316;44.118;27.258;2023-02-22T11:00:38;101053.38;;;14.55;75.52
6565;BME280;3316;44.118;27.258;2023-02-22T11:03:20;101065.13;;;14.40;76.08
6565;BME280;3316;44.118;27.258;2023-02-22T11:05:46;101059.78;;;14.42;77.27
6565;BME280;3316;44.118;27.258;2023-02-22T11:10:45;101053.28;;;14.58;75.95
6565;BME280;3316;44.118;27.258;2023-02-22T11:13:23;101061.63;;;14.81;74.65
6565;BME280;3316;44.118;27.258;2023-02-22T11:15:53;101054.47;;;15.27;72.15
6565;BME280;3316;44.118;27.258;2023-02-22T11:18:37;101063.16;;;14.94;73.12
6565;BME280;3316;44.118;27.258;2023-02-22T11:21:08;101044.06;;;14.78;73.61
6565;BME280;3316;44.118;27.258;2023-02-22T11:23:36;101056.34;;;14.81;74.97
6565;BME280;3316;44.118;27.258;2023-02-22T11:29:17;101063.97;;;14.53;76.36
6565;BME280;3316;44.118;27.258;2023-02-22T11:31:45;101064.28;;;14.81;74.90
6565;BME280;3316;44.118;27.258;2023-02-22T11:34:31;101048.31;;;14.85;73.15
6565;BME280;3316;44.118;27.258;2023-02-22T11:37:15;101052.97;;;14.73;72.50
6565;BME280;3316;44.118;27.258;2023-02-22T11:39:42;101060.97;;;14.71;72.05
6565;BME280;3316;44.118;27.258;2023-02-22T11:42:23;101059.38;;;15.05;70.70
6565;BME280;3316;44.118;27.258;2023-02-22T11:45:11;101071.03;;;14.97;70.31
6565;BME280;3316;44.118;27.258;2023-02-22T11:47:56;101066.78;;;15.28;69.44
6565;BME280;3316;44.118;27.258;2023-02-22T12:01:56;101042.75;;;15.74;65.03
6565;BME280;3316;44.118;27.258;2023-02-22T12:09:39;101037.28;;;15.45;65.21
6565;BME280;3316;44.118;27.258;2023-02-22T12:12:31;101015.47;;;15.31;65.17
6565;BME280;3316;44.118;27.258;2023-02-22T12:15:07;101048.75;;;15.45;64.77
6565;BME280;3316;44.118;27.258;2023-02-22T12:20:17;101037.94;;;15.88;62.29
6565;BME280;3316;44.118;27.258;2023-02-22T12:23:11;101010.44;;;15.58;61.26
6565;BME280;3316;44.118;27.258;2023-02-22T12:25:45;101046.19;;;15.39;62.34
6565;BME280;3316;44.118;27.258;2023-02-22T12:28:20;101042.50;;;15.09;62.52
6565;BME280;3316;44.118;27.258;2023-02-22T12:31:54;101039.00;;;14.65;63.22
6565;BME280;3316;44.118;27.258;2023-02-22T12:34:07;101036.09;;;14.34;64.35
6565;BME280;3316;44.118;27.258;2023-02-22T12:36:44;101035.34;;;14.26;64.79
6565;BME280;3316;44.118;27.258;2023-02-22T12:39:48;101006.50;;;14.12;64.17
6565;BME280;3316;44.118;27.258;2023-02-22T12:42:20;101043.50;;;14.15;63.85
6565;BME280;3316;44.118;27.258;2023-02-22T12:44:53;101036.56;;;14.08;63.48
6565;BME280;3316;44.118;27.258;2023-02-22T12:47:28;101049.53;;;14.22;64.37
6565;BME280;3316;44.118;27.258;2023-02-22T12:50:04;101046.44;;;14.48;62.81
6565;BME280;3316;44.118;27.258;2023-02-22T12:52:43;101045.06;;;14.71;62.24
6565;BME280;3316;44.118;27.258;2023-02-22T13:00:23;100988.84;;;14.59;59.89
6565;BME280;3316;44.118;27.258;2023-02-22T13:03:05;101047.53;;;14.80;60.28
6565;BME280;3316;44.118;27.258;2023-02-22T13:05:43;101051.56;;;14.57;60.41
6565;BME280;3316;44.118;27.258;2023-02-22T13:08:30;101051.56;;;14.57;60.59
6565;BME280;3316;44.118;27.258;2023-02-22T13:22:25;101047.66;;;13.80;62.78
6565;BME280;3316;44.118;27.258;2023-02-22T13:25:03;101050.19;;;13.86;62.94
6565;BME280;3316;44.118;27.258;2023-02-22T13:27:37;101060.44;;;14.05;62.17
6565;BME280;3316;44.118;27.258;2023-02-22T13:30:20;101063.06;;;14.07;61.80
6565;BME280;3316;44.118;27.258;2023-02-22T13:51:44;101065.84;;;13.99;59.28
6565;BME280;3316;44.118;27.258;2023-02-22T13:54:20;101063.28;;;13.93;59.20
6565;BME280;3316;44.118;27.258;2023-02-22T13:56:48;101017.75;;;13.76;59.23
6565;BME280;3316;44.118;27.258;2023-02-22T13:59:34;101060.88;;;13.80;58.11
6565;BME280;3316;44.118;27.258;2023-02-22T14:02:02;101055.94;;;13.59;58.72
6565;BME280;3316;44.118;27.258;2023-02-22T14:09:56;101071.03;;;13.52;59.17
6565;BME280;3316;44.118;27.258;2023-02-22T14:17:57;101064.53;;;13.73;58.14
6565;BME280;3316;44.118;27.258;2023-02-22T14:20:29;101074.50;;;13.54;57.69
6565;BME280;3316;44.118;27.258;2023-02-22T14:22:57;101054.66;;;13.27;58.40
6565;BME280;3316;44.118;27.258;2023-02-22T14:25:42;101056.38;;;13.31;58.69
6565;BME280;3316;44.118;27.258;2023-02-22T14:28:36;101075.75;;;13.30;59.31
6565;BME280;3316;44.118;27.258;2023-02-22T14:31:09;101078.47;;;13.26;59.29
6565;BME280;3316;44.118;27.258;2023-02-22T14:34:06;101070.81;;;13.06;59.67
6565;BME280;3316;44.118;27.258;2023-02-22T14:36:37;101075.06;;;13.18;59.65
6565;BME280;3316;44.118;27.258;2023-02-22T14:39:33;101078.72;;;13.08;59.50
6565;BME280;3316;44.118;27.258;2023-02-22T14:42:28;101073.50;;;13.03;59.74
6565;BME280;3316;44.118;27.258;2023-02-22T14:45:00;101085.88;;;12.98;60.09
6565;BME280;3316;44.118;27.258;2023-02-22T14:47:31;101045.75;;;12.69;59.64
6565;BME280;3316;44.118;27.258;2023-02-22T14:50:08;101073.03;;;12.68;60.74
6565;BME280;3316;44.118;27.258;2023-02-22T14:52:39;101079.28;;;12.61;60.91
6565;BME280;3316;44.118;27.258;2023-02-22T14:58:14;101085.59;;;12.48;60.63
6565;BME280;3316;44.118;27.258;2023-02-22T15:00:45;101082.88;;;12.52;60.92
6565;BME280;3316;44.118;27.258;2023-02-22T15:03:25;101075.81;;;12.58;61.31
6565;BME280;3316;44.118;27.258;2023-02-22T15:06:12;101073.19;;;12.54;61.63
6565;BME280;3316;44.118;27.258;2023-02-22T15:08:40;101062.72;;;12.47;60.67
6565;BME280;3316;44.118;27.258;2023-02-22T15:11:18;101087.34;;;12.49;61.08